sensor_id;sensor_type;location;lat;lon;timestamp;pressure;altitude;pressure_sealevel;temperature;humidity
21111;BME280;10713;51.912;4.494;2023-04-28T00:02:11;101316.38;;;8.91;100.00
21111;BME280;10713;51.912;4.494;2023-04-28T00:04:37;101309.38;;;8.90;100.00
21111;BME280;10713;51.912;4.494;2023-04-28T00:07:02;101297.09;;;8.90;100.00
21111;BME280;10713;51.912;4.494;2023-04-28T00:09:28;101309.28;;;8.94;100.00
21111;BME280;10713;51.912;4.494;2023-04-28T00:11:53;101296.94;;;8.96;100.00
21111;BME280;10713;51.912;4.494;2023-04-28T00:14:19;101293.38;;;8.97;100.00
21111;BME280;10713;51.912;4.494;2023-04-28T00:16:44;101293.31;;;9.00;100.00
21111;BME280;10713;51.912;4.494;2023-04-28T00:19:09;101295.91;;;9.02;100.00
21111;BME280;10713;51.912;4.494;2023-04-28T00:21:35;101282.63;;;9.07;100.00
21111;BME280;10713;51.912;4.494;2023-04-28T00:24:00;101274.69;;;9.08;100.00
21111;BME280;10713;51.912;4.494;2023-04-28T00:26:25;101265.00;;;9.09;100.00
21111;BME280;10713;51.912;4.494;2023-04-28T00:28:51;101269.44;;;9.07;100.00
21111;BME280;10713;51.912;4.494;2023-04-28T00:31:16;101257.22;;;9.04;100.00
21111;BME280;10713;51.912;4.494;2023-04-28T00:33:42;101258.19;;;9.01;100.00
21111;BME280;10713;51.912;4.494;2023-04-28T00:36:09;101256.59;;;8.96;100.00
21111;BME280;10713;51.912;4.494;2023-04-28T00:38:35;101244.34;;;8.93;100.00
21111;BME280;10713;51.912;4.494;2023-04-28T00:41:01;101246.94;;;8.95;100.00
21111;BME280;10713;51.912;4.494;2023-04-28T00:43:26;101234.69;;;8.94;100.00
21111;BME280;10713;51.912;4.494;2023-04-28T00:45:52;101218.88;;;8.94;100.00
21111;BME280;10713;51.912;4.494;2023-04-28T00:48:18;101226.72;;;8.95;100.00
21111;BME280;10713;51.912;4.494;2023-04-28T00:50:44;101233.75;;;8.96;100.00
21111;BME280;10713;51.912;4.494;2023-04-28T00:53:11;101223.22;;;8.96;100.00
21111;BME280;10713;51.912;4.494;2023-04-28T00:55:37;101230.19;;;8.97;100.00
21111;BME280;10713;51.912;4.494;2023-04-28T00:58:04;101217.88;;;8.98;100.00
21111;BME280;10713;51.912;4.494;2023-04-28T01:00:29;101210.00;;;8.98;100.00
21111;BME280;10713;51.912;4.494;2023-04-28T01:02:56;101209.09;;;8.99;100.00
21111;BME280;10713;51.912;4.494;2023-04-28T01:05:24;101209.13;;;8.97;100.00
21111;BME280;10713;51.912;4.494;2023-04-28T01:07:50;101203.00;;;8.97;100.00
21111;BME280;10713;51.912;4.494;2023-04-28T01:10:15;101193.34;;;8.97;100.00
21111;BME280;10713;51.912;4.494;2023-04-28T01:12:41;101183.72;;;8.96;100.00
21111;BME280;10713;51.912;4.494;2023-04-28T01:15:09;101186.28;;;8.98;100.00
21111;BME280;10713;51.912;4.494;2023-04-28T01:17:36;101188.91;;;8.99;100.00
21111;BME280;10713;51.912;4.494;2023-04-28T01:20:02;101186.25;;;8.99;100.00
21111;BME280;10713;51.912;4.494;2023-04-28T01:22:28;101181.88;;;8.98;100.00
21111;BME280;10713;51.912;4.494;2023-04-28T01:24:53;101181.09;;;8.96;100.00
21111;BME280;10713;51.912;4.494;2023-04-28T01:27:19;101179.34;;;8.95;100.00
21111;BME280;10713;51.912;4.494;2023-04-28T01:29:44;101173.22;;;8.95;100.00
21111;BME280;10713;51.912;4.494;2023-04-28T01:32:10;101175.91;;;8.93;100.00
21111;BME280;10713;51.912;4.494;2023-04-28T01:34:35;101167.16;;;8.91;100.00
21111;BME280;10713;51.912;4.494;2023-04-28T01:37:01;101154.94;;;8.90;100.00
21111;BME280;10713;51.912;4.494;2023-04-28T01:39:26;101157.59;;;8.89;100.00
21111;BME280;10713;51.912;4.494;2023-04-28T01:41:51;101138.31;;;8.88;100.00
21111;BME280;10713;51.912;4.494;2023-04-28T01:44:17;101152.41;;;8.86;100.00
21111;BME280;10713;51.912;4.494;2023-04-28T01:46:42;101156.84;;;8.84;100.00
21111;BME280;10713;51.912;4.494;2023-04-28T01:49:07;101162.16;;;8.82;100.00
21111;BME280;10713;51.912;4.494;2023-04-28T01:51:33;101157.78;;;8.81;100.00
21111;BME280;10713;51.912;4.494;2023-04-28T01:53:58;101141.97;;;8.83;100.00
21111;BME280;10713;51.912;4.494;2023-04-28T01:56:23;101149.00;;;8.82;100.00
21111;BME280;10713;51.912;4.494;2023-04-28T01:58:49;101144.63;;;8.81;100.00
21111;BME280;10713;51.912;4.494;2023-04-28T02:01:14;101147.41;;;8.75;100.00
21111;BME280;10713;51.912;4.494;2023-04-28T02:03:39;101142.16;;;8.75;100.00
21111;BME280;10713;51.912;4.494;2023-04-28T02:06:05;101139.59;;;8.73;100.00
21111;BME280;10713;51.912;4.494;2023-04-28T02:08:30;101134.31;;;8.73;100.00
21111;BME280;10713;51.912;4.494;2023-04-28T02:10:56;101129.91;;;8.74;100.00
21111;BME280;10713;51.912;4.494;2023-04-28T02:13:22;101123.78;;;8.73;100.00
21111;BME280;10713;51.912;4.494;2023-04-28T02:15:47;101121.19;;;8.72;100.00
21111;BME280;10713;51.912;4.494;2023-04-28T02:18:13;101127.38;;;8.71;100.00
21111;BME280;10713;51.912;4.494;2023-04-28T02:20:38;101121.25;;;8.70;100.00
21111;BME280;10713;51.912;4.494;2023-04-28T02:23:03;101107.19;;;8.70;100.00
21111;BME280;10713;51.912;4.494;2023-04-28T02:25:29;101109.03;;;8.68;100.00
21111;BME280;10713;51.912;4.494;2023-04-28T02:27:54;101095.03;;;8.66;100.00
21111;BME280;10713;51.912;4.494;2023-04-28T02:30:20;101098.63;;;8.63;100.00
21111;BME280;10713;51.912;4.494;2023-04-28T02:32:46;101093.41;;;8.62;100.00
21111;BME280;10713;51.912;4.494;2023-04-28T02:35:12;101096.94;;;8.61;100.00
21111;BME280;10713;51.912;4.494;2023-04-28T02:37:38;101093.44;;;8.60;100.00
21111;BME280;10713;51.912;4.494;2023-04-28T02:40:03;101095.25;;;8.58;100.00
21111;BME280;10713;51.912;4.494;2023-04-28T02:42:29;101085.63;;;8.57;100.00
21111;BME280;10713;51.912;4.494;2023-04-28T02:44:54;101090.91;;;8.57;100.00
21111;BME280;10713;51.912;4.494;2023-04-28T02:47:20;101082.06;;;8.60;100.00
21111;BME280;10713;51.912;4.494;2023-04-28T02:49:45;101089.00;;;8.62;100.00
21111;BME280;10713;51.912;4.494;2023-04-28T02:52:10;101098.63;;;8.63;100.00
21111;BME280;10713;51.912;4.494;2023-04-28T02:54:36;101096.84;;;8.64;100.00
21111;BME280;10713;51.912;4.494;2023-04-28T02:57:02;101093.25;;;8.66;100.00
21111;BME280;10713;51.912;4.494;2023-04-28T02:59:29;101097.66;;;8.67;100.00
21111;BME280;10713;51.912;4.494;2023-04-28T03:01:54;101091.50;;;8.67;100.00
21111;BME280;10713;51.912;4.494;2023-04-28T03:04:20;101080.97;;;8.67;100.00
21111;BME280;10713;51.912;4.494;2023-04-28T03:06:45;101088.00;;;8.66;100.00
21111;BME280;10713;51.912;4.494;2023-04-28T03:09:11;101085.44;;;8.65;100.00
21111;BME280;10713;51.912;4.494;2023-04-28T03:11:36;101095.13;;;8.63;100.00
21111;BME280;10713;51.912;4.494;2023-04-28T03:14:02;101098.69;;;8.62;100.00
21111;BME280;10713;51.912;4.494;2023-04-28T03:16:27;101083.78;;;8.61;100.00
21111;BME280;10713;51.912;4.494;2023-04-28T03:18:53;101081.19;;;8.59;100.00
21111;BME280;10713;51.912;4.494;2023-04-28T03:21:18;101080.34;;;8.59;100.00
21111;BME280;10713;51.912;4.494;2023-04-28T03:23:44;101075.06;;;8.59;100.00
21111;BME280;10713;51.912;4.494;2023-04-28T03:26:09;101067.19;;;8.59;100.00
21111;BME280;10713;51.912;4.494;2023-04-28T03:28:35;101072.47;;;8.57;100.00
21111;BME280;10713;51.912;4.494;2023-04-28T03:31:00;101055.78;;;8.58;100.00
21111;BME280;10713;51.912;4.494;2023-04-28T03:33:26;101058.47;;;8.56;100.00
21111;BME280;10713;51.912;4.494;2023-04-28T03:35:52;101054.16;;;8.52;100.00
21111;BME280;10713;51.912;4.494;2023-04-28T03:38:18;101059.41;;;8.54;100.00
21111;BME280;10713;51.912;4.494;2023-04-28T03:40:43;101040.94;;;8.55;100.00
21111;BME280;10713;51.912;4.494;2023-04-28T03:43:09;101047.09;;;8.54;100.00
21111;BME280;10713;51.912;4.494;2023-04-28T03:45:35;101047.19;;;8.51;100.00
21111;BME280;10713;51.912;4.494;2023-04-28T03:48:00;101062.16;;;8.49;100.00
21111;BME280;10713;51.912;4.494;2023-04-28T03:50:26;101029.78;;;8.47;100.00
21111;BME280;10713;51.912;4.494;2023-04-28T03:52:51;101033.25;;;8.48;100.00
21111;BME280;10713;51.912;4.494;2023-04-28T03:55:16;101024.44;;;8.50;100.00
21111;BME280;10713;51.912;4.494;2023-04-28T03:57:42;101019.06;;;8.53;100.00
21111;BME280;10713;51.912;4.494;2023-04-28T04:00:08;101036.66;;;8.51;100.00
21111;BME280;10713;51.912;4.494;2023-04-28T04:02:34;101021.81;;;8.49;100.00
21111;BME280;10713;51.912;4.494;2023-04-28T04:04:59;101011.31;;;8.49;100.00
21111;BME280;10713;51.912;4.494;2023-04-28T04:07:24;101002.53;;;8.50;100.00
21111;BME280;10713;51.912;4.494;2023-04-28T04:09:50;101005.22;;;8.47;100.00
21111;BME280;10713;51.912;4.494;2023-04-28T04:12:15;101000.84;;;8.47;100.00
21111;BME280;10713;51.912;4.494;2023-04-28T04:14:41;100990.34;;;8.46;100.00
21111;BME280;10713;51.912;4.494;2023-04-28T04:17:07;100996.38;;;8.49;100.00
21111;BME280;10713;51.912;4.494;2023-04-28T04:19:32;100995.41;;;8.53;100.00
21111;BME280;10713;51.912;4.494;2023-04-28T04:21:58;100989.22;;;8.54;100.00
21111;BME280;10713;51.912;4.494;2023-04-28T04:24:23;100990.94;;;8.55;100.00
21111;BME280;10713;51.912;4.494;2023-04-28T04:26:48;100990.94;;;8.55;100.00
21111;BME280;10713;51.912;4.494;2023-04-28T04:29:14;100995.34;;;8.55;100.00
21111;BME280;10713;51.912;4.494;2023-04-28T04:31:39;100997.13;;;8.54;100.00
21111;BME280;10713;51.912;4.494;2023-04-28T04:34:05;101000.28;;;8.67;100.00
21111;BME280;10713;51.912;4.494;2023-04-28T04:36:30;101001.63;;;8.80;100.00
21111;BME280;10713;51.912;4.494;2023-04-28T04:38:57;100994.38;;;8.89;100.00
21111;BME280;10713;51.912;4.494;2023-04-28T04:41:24;100996.34;;;8.80;100.00
21111;BME280;10713;51.912;4.494;2023-04-28T04:43:50;100973.03;;;8.68;100.00
21111;BME280;10713;51.912;4.494;2023-04-28T04:46:15;100983.03;;;8.55;100.00
21111;BME280;10713;51.912;4.494;2023-04-28T04:48:41;100994.97;;;8.36;100.00
21111;BME280;10713;51.912;4.494;2023-04-28T04:51:06;101007.63;;;8.22;100.00
21111;BME280;10713;51.912;4.494;2023-04-28T04:53:31;100999.28;;;8.06;100.00
21111;BME280;10713;51.912;4.494;2023-04-28T04:55:57;101003.09;;;7.94;100.00
21111;BME280;10713;51.912;4.494;2023-04-28T04:58:22;101010.31;;;7.86;100.00
21111;BME280;10713;51.912;4.494;2023-04-28T05:00:48;101021.75;;;7.85;100.00
21111;BME280;10713;51.912;4.494;2023-04-28T05:03:13;101020.03;;;7.82;100.00
21111;BME280;10713;51.912;4.494;2023-04-28T05:05:39;101021.84;;;7.80;100.00
21111;BME280;10713;51.912;4.494;2023-04-28T05:08:04;101022.75;;;7.79;100.00
21111;BME280;10713;51.912;4.494;2023-04-28T05:10:30;101021.06;;;7.77;100.00
21111;BME280;10713;51.912;4.494;2023-04-28T05:12:55;101027.22;;;7.76;100.00
21111;BME280;10713;51.912;4.494;2023-04-28T05:15:20;101029.88;;;7.74;100.00
21111;BME280;10713;51.912;4.494;2023-04-28T05:17:46;101030.75;;;7.75;100.00
21111;BME280;10713;51.912;4.494;2023-04-28T05:20:11;101042.94;;;7.77;100.00
21111;BME280;10713;51.912;4.494;2023-04-28T05:22:36;101035.03;;;7.79;100.00
21111;BME280;10713;51.912;4.494;2023-04-28T05:25:02;101047.25;;;7.81;100.00
21111;BME280;10713;51.912;4.494;2023-04-28T05:27:28;101043.66;;;7.84;100.00
21111;BME280;10713;51.912;4.494;2023-04-28T05:29:53;101038.44;;;7.82;100.00
21111;BME280;10713;51.912;4.494;2023-04-28T05:32:19;101053.38;;;7.80;100.00
21111;BME280;10713;51.912;4.494;2023-04-28T05:34:44;101028.09;;;7.75;100.00
21111;BME280;10713;51.912;4.494;2023-04-28T05:37:10;101032.59;;;7.71;100.00
21111;BME280;10713;51.912;4.494;2023-04-28T05:39:35;101032.69;;;7.66;100.00
21111;BME280;10713;51.912;4.494;2023-04-28T05:42:00;101030.94;;;7.67;100.00
21111;BME280;10713;51.912;4.494;2023-04-28T05:44:27;101026.63;;;7.64;100.00
21111;BME280;10713;51.912;4.494;2023-04-28T05:46:53;101024.78;;;7.68;100.00
21111;BME280;10713;51.912;4.494;2023-04-28T05:49:18;101020.31;;;7.72;100.00
21111;BME280;10713;51.912;4.494;2023-04-28T05:51:43;101021.16;;;7.72;100.00
21111;BME280;10713;51.912;4.494;2023-04-28T05:54:09;101022.84;;;7.75;100.00
21111;BME280;10713;51.912;4.494;2023-04-28T05:56:34;101026.25;;;7.80;100.00
21111;BME280;10713;51.912;4.494;2023-04-28T05:59:00;101013.94;;;7.82;100.00
21111;BME280;10713;51.912;4.494;2023-04-28T06:01:29;101017.41;;;7.82;100.00
21111;BME280;10713;51.912;4.494;2023-04-28T06:03:55;101027.00;;;7.83;100.00
21111;BME280;10713;51.912;4.494;2023-04-28T06:06:22;101018.94;;;7.93;100.00
21111;BME280;10713;51.912;4.494;2023-04-28T06:08:47;101026.94;;;7.86;100.00
21111;BME280;10713;51.912;4.494;2023-04-28T06:11:12;101025.31;;;7.82;100.00
21111;BME280;10713;51.912;4.494;2023-04-28T06:13:38;101029.69;;;7.82;100.00
21111;BME280;10713;51.912;4.494;2023-04-28T06:16:03;101039.19;;;7.87;100.00
21111;BME280;10713;51.912;4.494;2023-04-28T06:18:29;101035.63;;;7.90;100.00
21111;BME280;10713;51.912;4.494;2023-04-28T06:20:56;101025.63;;;8.04;100.00
21111;BME280;10713;51.912;4.494;2023-04-28T06:23:22;101034.13;;;8.14;100.00
21111;BME280;10713;51.912;4.494;2023-04-28T06:25:47;101027.81;;;8.21;100.00
21111;BME280;10713;51.912;4.494;2023-04-28T06:28:12;101026.25;;;8.14;100.00
21111;BME280;10713;51.912;4.494;2023-04-28T06:30:39;101026.25;;;8.12;100.00
21111;BME280;10713;51.912;4.494;2023-04-28T06:33:05;101024.44;;;8.16;100.00
21111;BME280;10713;51.912;4.494;2023-04-28T06:35:30;101023.50;;;8.19;100.00
21111;BME280;10713;51.912;4.494;2023-04-28T06:37:57;101025.13;;;8.23;100.00
21111;BME280;10713;51.912;4.494;2023-04-28T06:40:22;101033.59;;;8.34;100.00
21111;BME280;10713;51.912;4.494;2023-04-28T06:42:47;101025.56;;;8.40;100.00
21111;BME280;10713;51.912;4.494;2023-04-28T06:45:13;101030.47;;;8.54;100.00
21111;BME280;10713;51.912;4.494;2023-04-28T06:47:38;101029.44;;;8.60;100.00
21111;BME280;10713;51.912;4.494;2023-04-28T06:50:05;101032.75;;;8.66;100.00
21111;BME280;10713;51.912;4.494;2023-04-28T06:52:30;101029.78;;;8.78;100.00
21111;BME280;10713;51.912;4.494;2023-04-28T06:54:56;101024.78;;;8.99;100.00
21111;BME280;10713;51.912;4.494;2023-04-28T06:57:21;101024.53;;;9.07;100.00
21111;BME280;10713;51.912;4.494;2023-04-28T06:59:47;101032.41;;;9.08;100.00
21111;BME280;10713;51.912;4.494;2023-04-28T07:02:12;101025.22;;;9.13;100.00
21111;BME280;10713;51.912;4.494;2023-04-28T07:04:38;101019.91;;;9.15;100.00
21111;BME280;10713;51.912;4.494;2023-04-28T07:07:03;101026.47;;;9.30;100.00
21111;BME280;10713;51.912;4.494;2023-04-28T07:09:33;101031.50;;;9.37;100.00
21111;BME280;10713;51.912;4.494;2023-04-28T07:11:58;101031.59;;;9.34;100.00
21111;BME280;10713;51.912;4.494;2023-04-28T07:14:24;101028.69;;;9.43;100.00
21111;BME280;10713;51.912;4.494;2023-04-28T07:16:49;101031.22;;;9.46;100.00
21111;BME280;10713;51.912;4.494;2023-04-28T07:19:14;101036.03;;;9.60;100.00
21111;BME280;10713;51.912;4.494;2023-04-28T07:21:40;101027.06;;;9.67;100.00
21111;BME280;10713;51.912;4.494;2023-04-28T07:24:05;101029.81;;;9.63;100.00
21111;BME280;10713;51.912;4.494;2023-04-28T07:26:32;101030.13;;;9.80;100.00
21111;BME280;10713;51.912;4.494;2023-04-28T07:28:58;101014.72;;;9.95;100.00
21111;BME280;10713;51.912;4.494;2023-04-28T07:31:23;101023.25;;;10.01;100.00
21111;BME280;10713;51.912;4.494;2023-04-28T07:33:48;101013.63;;;10.00;100.00
21111;BME280;10713;51.912;4.494;2023-04-28T07:36:14;101025.16;;;9.98;100.00
21111;BME280;10713;51.912;4.494;2023-04-28T07:38:40;101026.69;;;10.05;100.00
21111;BME280;10713;51.912;4.494;2023-04-28T07:41:05;101028.50;;;10.03;100.00
21111;BME280;10713;51.912;4.494;2023-04-28T07:43:31;101030.81;;;10.12;100.00
21111;BME280;10713;51.912;4.494;2023-04-28T07:45:56;101023.75;;;10.12;100.00
21111;BME280;10713;51.912;4.494;2023-04-28T07:48:22;101024.13;;;10.28;100.00
21111;BME280;10713;51.912;4.494;2023-04-28T07:50:47;101017.16;;;10.27;100.00
21111;BME280;10713;51.912;4.494;2023-04-28T07:53:12;101018.75;;;10.31;100.00
21111;BME280;10713;51.912;4.494;2023-04-28T07:55:38;101011.19;;;10.46;100.00
21111;BME280;10713;51.912;4.494;2023-04-28T07:58:06;101018.84;;;10.53;100.00
21111;BME280;10713;51.912;4.494;2023-04-28T08:00:32;101014.59;;;10.49;100.00
21111;BME280;10713;51.912;4.494;2023-04-28T08:02:58;101022.56;;;10.48;100.00
21111;BME280;10713;51.912;4.494;2023-04-28T08:05:23;101021.78;;;10.69;100.00
21111;BME280;10713;51.912;4.494;2023-04-28T08:07:49;101022.94;;;10.86;100.00
21111;BME280;10713;51.912;4.494;2023-04-28T08:10:14;101014.16;;;10.85;100.00
21111;BME280;10713;51.912;4.494;2023-04-28T08:12:40;101017.66;;;10.86;100.00
21111;BME280;10713;51.912;4.494;2023-04-28T08:15:08;101012.13;;;10.92;100.00
21111;BME280;10713;51.912;4.494;2023-04-28T08:17:34;101024.13;;;11.00;100.00
21111;BME280;10713;51.912;4.494;2023-04-28T08:19:59;101017.63;;;11.09;100.00
21111;BME280;10713;51.912;4.494;2023-04-28T08:22:25;101028.88;;;11.14;100.00
21111;BME280;10713;51.912;4.494;2023-04-28T08:24:50;101023.25;;;11.23;100.00
21111;BME280;10713;51.912;4.494;2023-04-28T08:27:15;101021.47;;;11.46;100.00
21111;BME280;10713;51.912;4.494;2023-04-28T08:29:41;101024.84;;;11.49;100.00
21111;BME280;10713;51.912;4.494;2023-04-28T08:32:06;101020.25;;;11.55;100.00
21111;BME280;10713;51.912;4.494;2023-04-28T08:34:32;101021.09;;;11.55;100.00
21111;BME280;10713;51.912;4.494;2023-04-28T08:36:58;101027.91;;;11.61;100.00
21111;BME280;10713;51.912;4.494;2023-04-28T08:39:24;101020.66;;;11.66;100.00
21111;BME280;10713;51.912;4.494;2023-04-28T08:41:51;101020.28;;;11.75;100.00
21111;BME280;10713;51.912;4.494;2023-04-28T08:44:16;101009.97;;;11.91;100.00
21111;BME280;10713;51.912;4.494;2023-04-28T08:46:43;101017.66;;;11.97;100.00
21111;BME280;10713;51.912;4.494;2023-04-28T08:49:16;101024.78;;;12.15;100.00
21111;BME280;10713;51.912;4.494;2023-04-28T08:51:49;101018.50;;;12.38;100.00
21111;BME280;10713;51.912;4.494;2023-04-28T08:54:16;101010.78;;;12.34;100.00
21111;BME280;10713;51.912;4.494;2023-04-28T08:56:42;101012.91;;;12.65;100.00
21111;BME280;10713;51.912;4.494;2023-04-28T08:59:10;101014.00;;;12.80;100.00
21111;BME280;10713;51.912;4.494;2023-04-28T09:01:36;101005.63;;;12.89;100.00
21111;BME280;10713;51.912;4.494;2023-04-28T09:04:02;101007.06;;;12.96;100.00
21111;BME280;10713;51.912;4.494;2023-04-28T09:06:35;101012.50;;;13.12;100.00
21111;BME280;10713;51.912;4.494;2023-04-28T09:11:54;101003.72;;;13.31;100.00
21111;BME280;10713;51.912;4.494;2023-04-28T09:14:21;101000.38;;;13.44;100.00
21111;BME280;10713;51.912;4.494;2023-04-28T09:16:47;100998.13;;;13.37;100.00
21111;BME280;10713;51.912;4.494;2023-04-28T09:19:14;100997.88;;;13.41;100.00
21111;BME280;10713;51.912;4.494;2023-04-28T09:21:58;100989.41;;;13.52;100.00
21111;BME280;10713;51.912;4.494;2023-04-28T09:24:28;100992.63;;;13.76;100.00
21111;BME280;10713;51.912;4.494;2023-04-28T09:26:54;100987.31;;;13.93;100.00
21111;BME280;10713;51.912;4.494;2023-04-28T09:29:20;100998.03;;;14.09;100.00
21111;BME280;10713;51.912;4.494;2023-04-28T09:31:45;100999.72;;;13.75;100.00
21111;BME280;10713;51.912;4.494;2023-04-28T09:34:11;100999.81;;;13.74;100.00
21111;BME280;10713;51.912;4.494;2023-04-28T09:36:36;101008.78;;;14.24;100.00
21111;BME280;10713;51.912;4.494;2023-04-28T09:39:02;100994.44;;;13.93;100.00
21111;BME280;10713;51.912;4.494;2023-04-28T09:41:35;101003.50;;;13.89;100.00
21111;BME280;10713;51.912;4.494;2023-04-28T09:44:11;101001.53;;;13.92;100.00
21111;BME280;10713;51.912;4.494;2023-04-28T09:46:37;100997.66;;;14.00;100.00
21111;BME280;10713;51.912;4.494;2023-04-28T09:49:03;101013.56;;;14.00;100.00
21111;BME280;10713;51.912;4.494;2023-04-28T09:51:29;101001.78;;;14.05;100.00
21111;BME280;10713;51.912;4.494;2023-04-28T09:53:58;101006.53;;;14.16;100.00
21111;BME280;10713;51.912;4.494;2023-04-28T09:56:26;101012.31;;;14.24;100.00
21111;BME280;10713;51.912;4.494;2023-04-28T09:58:52;101013.72;;;14.31;100.00
21111;BME280;10713;51.912;4.494;2023-04-28T10:01:19;101009.16;;;14.33;100.00
21111;BME280;10713;51.912;4.494;2023-04-28T10:03:44;101015.91;;;14.23;100.00
21111;BME280;10713;51.912;4.494;2023-04-28T10:06:10;101017.25;;;14.14;100.00
21111;BME280;10713;51.912;4.494;2023-04-28T10:08:36;101019.31;;;14.08;100.00
21111;BME280;10713;51.912;4.494;2023-04-28T10:11:01;101015.97;;;14.04;100.00
21111;BME280;10713;51.912;4.494;2023-04-28T10:13:28;101020.97;;;13.93;100.00
21111;BME280;10713;51.912;4.494;2023-04-28T10:15:53;101033.06;;;13.81;100.00
21111;BME280;10713;51.912;4.494;2023-04-28T10:18:21;101027.06;;;13.78;100.00
21111;BME280;10713;51.912;4.494;2023-04-28T10:20:49;101019.94;;;13.78;100.00
21111;BME280;10713;51.912;4.494;2023-04-28T10:25:53;101022.84;;;13.73;100.00
21111;BME280;10713;51.912;4.494;2023-04-28T10:28:20;101021.97;;;13.73;100.00
21111;BME280;10713;51.912;4.494;2023-04-28T10:31:09;101018.47;;;13.72;100.00
21111;BME280;10713;51.912;4.494;2023-04-28T10:33:36;101019.94;;;13.78;100.00
21111;BME280;10713;51.912;4.494;2023-04-28T10:36:02;101017.44;;;13.75;100.00
21111;BME280;10713;51.912;4.494;2023-04-28T10:38:28;101014.78;;;13.75;100.00
21111;BME280;10713;51.912;4.494;2023-04-28T10:40:55;101016.34;;;13.79;100.00
21111;BME280;10713;51.912;4.494;2023-04-28T10:43:32;101026.97;;;13.79;100.00
21111;BME280;10713;51.912;4.494;2023-04-28T10:45:58;101023.22;;;13.83;100.00
21111;BME280;10713;51.912;4.494;2023-04-28T10:58:52;101018.72;;;13.85;100.00
21111;BME280;10713;51.912;4.494;2023-04-28T11:03:56;101026.97;;;13.79;100.00
21111;BME280;10713;51.912;4.494;2023-04-28T11:11:39;101019.31;;;13.90;100.00
21111;BME280;10713;51.912;4.494;2023-04-28T11:19:17;101027.75;;;13.81;100.00
21111;BME280;10713;51.912;4.494;2023-04-28T11:21:43;101022.38;;;13.83;100.00
21111;BME280;10713;51.912;4.494;2023-04-28T11:24:09;101026.53;;;13.88;100.00
21111;BME280;10713;51.912;4.494;2023-04-28T11:26:36;101017.63;;;13.89;100.00
21111;BME280;10713;51.912;4.494;2023-04-28T11:29:02;101032.59;;;13.90;100.00
21111;BME280;10713;51.912;4.494;2023-04-28T11:31:27;101027.13;;;13.93;100.00
21111;BME280;10713;51.912;4.494;2023-04-28T11:36:26;101028.22;;;13.89;100.00
21111;BME280;10713;51.912;4.494;2023-04-28T11:38:53;101029.09;;;13.90;100.00
21111;BME280;10713;51.912;4.494;2023-04-28T11:41:20;101037.44;;;13.82;100.00
21111;BME280;10713;51.912;4.494;2023-04-28T11:43:45;101039.16;;;13.83;100.00
21111;BME280;10713;51.912;4.494;2023-04-28T11:46:24;101047.91;;;13.85;100.00
21111;BME280;10713;51.912;4.494;2023-04-28T11:49:19;101049.06;;;13.80;100.00
21111;BME280;10713;51.912;4.494;2023-04-28T11:51:45;101049.09;;;13.97;100.00
21111;BME280;10713;51.912;4.494;2023-04-28T11:54:13;101044.63;;;13.97;100.00
21111;BME280;10713;51.912;4.494;2023-04-28T11:56:43;101046.19;;;14.02;100.00
21111;BME280;10713;51.912;4.494;2023-04-28T11:59:11;101053.78;;;13.73;100.00
21111;BME280;10713;51.912;4.494;2023-04-28T12:04:11;101055.72;;;13.88;100.00
21111;BME280;10713;51.912;4.494;2023-04-28T12:06:39;101053.75;;;13.92;100.00
21111;BME280;10713;51.912;4.494;2023-04-28T12:09:18;101041.13;;;13.97;100.00
21111;BME280;10713;51.912;4.494;2023-04-28T12:11:56;101052.97;;;14.07;100.00
21111;BME280;10713;51.912;4.494;2023-04-28T12:14:22;101049.63;;;14.21;100.00
21111;BME280;10713;51.912;4.494;2023-04-28T12:16:48;101051.44;;;14.03;100.00
21111;BME280;10713;51.912;4.494;2023-04-28T12:19:15;101054.63;;;13.92;100.00
21111;BME280;10713;51.912;4.494;2023-04-28T12:21:41;101059.22;;;13.89;100.00
21111;BME280;10713;51.912;4.494;2023-04-28T12:24:14;101060.16;;;13.88;100.00
21111;BME280;10713;51.912;4.494;2023-04-28T12:26:40;101054.31;;;13.98;100.00
21111;BME280;10713;51.912;4.494;2023-04-28T12:29:06;101063.44;;;14.10;100.00
21111;BME280;10713;51.912;4.494;2023-04-28T12:31:46;101056.22;;;14.14;100.00
21111;BME280;10713;51.912;4.494;2023-04-28T12:34:12;101058.53;;;14.20;100.00
21111;BME280;10713;51.912;4.494;2023-04-28T12:36:37;101067.38;;;14.20;100.00
21111;BME280;10713;51.912;4.494;2023-04-28T12:39:02;101062.28;;;14.16;100.00
21111;BME280;10713;51.912;4.494;2023-04-28T12:41:28;101074.84;;;14.12;100.00
21111;BME280;10713;51.912;4.494;2023-04-28T12:43:53;101074.94;;;14.11;100.00
21111;BME280;10713;51.912;4.494;2023-04-28T12:46:18;101064.22;;;14.12;100.00
21111;BME280;10713;51.912;4.494;2023-04-28T12:48:44;101065.03;;;14.14;100.00
21111;BME280;10713;51.912;4.494;2023-04-28T12:51:09;101073.06;;;14.30;100.00
21111;BME280;10713;51.912;4.494;2023-04-28T12:53:34;101077.72;;;14.08;100.00
21111;BME280;10713;51.912;4.494;2023-04-28T12:56:00;101077.97;;;14.03;100.00
21111;BME280;10713;51.912;4.494;2023-04-28T12:58:25;101084.22;;;14.02;100.00
21111;BME280;10713;51.912;4.494;2023-04-28T13:00:51;101077.44;;;13.96;100.00
21111;BME280;10713;51.912;4.494;2023-04-28T13:03:16;101081.00;;;13.95;100.00
21111;BME280;10713;51.912;4.494;2023-04-28T13:05:42;101085.41;;;13.96;100.00
21111;BME280;10713;51.912;4.494;2023-04-28T13:08:08;101084.34;;;13.99;100.00
21111;BME280;10713;51.912;4.494;2023-04-28T13:10:33;101093.19;;;14.00;100.00
21111;BME280;10713;51.912;4.494;2023-04-28T13:12:59;101097.72;;;13.97;100.00
21111;BME280;10713;51.912;4.494;2023-04-28T13:15:24;101088.91;;;13.97;100.00